sensor_id;sensor_type;location;lat;lon;timestamp;pressure;altitude;pressure_sealevel;temperature;humidity
3122;BME280;1571;52.524;14.104;2023-12-29T00:00:07;100401.56;;;8.28;81.14
3122;BME280;1571;52.524;14.104;2023-12-29T00:02:37;100391.66;;;8.32;81.04
3122;BME280;1571;52.524;14.104;2023-12-29T00:05:06;100389.00;;;8.32;80.98
3122;BME280;1571;52.524;14.104;2023-12-29T00:07:35;100392.34;;;8.36;80.97
3122;BME280;1571;52.524;14.104;2023-12-29T00:10:04;100385.94;;;8.24;81.22
3122;BME280;1571;52.524;14.104;2023-12-29T00:12:34;100391.50;;;8.19;81.30
3122;BME280;1571;52.524;14.104;2023-12-29T00:15:03;100377.84;;;8.27;81.37
3122;BME280;1571;52.524;14.104;2023-12-29T00:17:32;100379.25;;;8.18;81.51
3122;BME280;1571;52.524;14.104;2023-12-29T00:20:05;100396.44;;;8.25;81.50
3122;BME280;1571;52.524;14.104;2023-12-29T00:22:34;100382.19;;;8.28;81.30
3122;BME280;1571;52.524;14.104;2023-12-29T00:25:03;100378.00;;;8.24;81.39
3122;BME280;1571;52.524;14.104;2023-12-29T00:27:32;100370.50;;;8.32;81.00
3122;BME280;1571;52.524;14.104;2023-12-29T00:30:02;100371.72;;;8.26;81.24
3122;BME280;1571;52.524;14.104;2023-12-29T00:32:32;100363.78;;;8.26;80.95
3122;BME280;1571;52.524;14.104;2023-12-29T00:35:01;100355.53;;;8.17;80.95
3122;BME280;1571;52.524;14.104;2023-12-29T00:37:29;100352.25;;;8.27;81.03
3122;BME280;1571;52.524;14.104;2023-12-29T00:39:57;100358.75;;;8.22;80.97
3122;BME280;1571;52.524;14.104;2023-12-29T00:42:26;100349.03;;;8.22;81.08
3122;BME280;1571;52.524;14.104;2023-12-29T00:44:54;100335.00;;;8.36;80.62
3122;BME280;1571;52.524;14.104;2023-12-29T00:47:24;100338.94;;;8.29;80.59
3122;BME280;1571;52.524;14.104;2023-12-29T00:49:52;100350.56;;;8.26;80.60
3122;BME280;1571;52.524;14.104;2023-12-29T00:52:21;100337.19;;;8.44;80.53
3122;BME280;1571;52.524;14.104;2023-12-29T00:54:49;100326.34;;;8.48;79.95
3122;BME280;1571;52.524;14.104;2023-12-29T00:57:17;100331.06;;;8.43;79.98
3122;BME280;1571;52.524;14.104;2023-12-29T00:59:47;100320.81;;;8.37;80.08
3122;BME280;1571;52.524;14.104;2023-12-29T01:02:15;100337.38;;;8.10;80.15
3122;BME280;1571;52.524;14.104;2023-12-29T01:04:45;100325.88;;;8.26;80.24
3122;BME280;1571;52.524;14.104;2023-12-29T01:07:12;100318.16;;;8.37;80.09
3122;BME280;1571;52.524;14.104;2023-12-29T01:09:41;100324.25;;;8.09;80.54
3122;BME280;1571;52.524;14.104;2023-12-29T01:12:09;100332.69;;;8.16;80.76
3122;BME280;1571;52.524;14.104;2023-12-29T01:14:38;100317.38;;;8.06;80.57
3122;BME280;1571;52.524;14.104;2023-12-29T01:17:06;100321.63;;;8.09;80.54
3122;BME280;1571;52.524;14.104;2023-12-29T01:19:34;100319.59;;;7.98;80.66
3122;BME280;1571;52.524;14.104;2023-12-29T01:22:04;100309.09;;;7.97;80.86
3122;BME280;1571;52.524;14.104;2023-12-29T01:24:33;100315.91;;;8.01;80.64
3122;BME280;1571;52.524;14.104;2023-12-29T01:27:12;100304.91;;;8.08;80.58
3122;BME280;1571;52.524;14.104;2023-12-29T01:29:40;100299.22;;;8.14;80.25
3122;BME280;1571;52.524;14.104;2023-12-29T01:32:09;100302.63;;;8.17;80.27
3122;BME280;1571;52.524;14.104;2023-12-29T01:34:38;100313.50;;;8.12;80.63
3122;BME280;1571;52.524;14.104;2023-12-29T01:37:07;100317.91;;;7.97;80.73
3122;BME280;1571;52.524;14.104;2023-12-29T01:39:37;100321.66;;;7.93;80.98
3122;BME280;1571;52.524;14.104;2023-12-29T01:42:07;100315.03;;;7.86;81.32
3122;BME280;1571;52.524;14.104;2023-12-29T01:44:36;100308.56;;;7.76;81.42
3122;BME280;1571;52.524;14.104;2023-12-29T01:47:10;100300.63;;;7.76;81.55
3122;BME280;1571;52.524;14.104;2023-12-29T01:49:40;100299.13;;;8.02;81.10
3122;BME280;1571;52.524;14.104;2023-12-29T01:52:10;100291.09;;;8.03;80.93
3122;BME280;1571;52.524;14.104;2023-12-29T01:54:39;100278.91;;;8.01;80.98
3122;BME280;1571;52.524;14.104;2023-12-29T01:57:10;100273.53;;;8.02;80.96
3122;BME280;1571;52.524;14.104;2023-12-29T01:59:39;100295.56;;;7.87;81.06
3122;BME280;1571;52.524;14.104;2023-12-29T02:02:08;100285.88;;;7.71;81.71
3122;BME280;1571;52.524;14.104;2023-12-29T02:04:36;100278.03;;;7.70;82.06
3122;BME280;1571;52.524;14.104;2023-12-29T02:07:05;100275.19;;;7.89;81.85
3122;BME280;1571;52.524;14.104;2023-12-29T02:09:35;100261.44;;;7.98;81.46
3122;BME280;1571;52.524;14.104;2023-12-29T02:12:05;100255.03;;;8.02;81.23
3122;BME280;1571;52.524;14.104;2023-12-29T02:14:33;100258.59;;;8.01;81.05
3122;BME280;1571;52.524;14.104;2023-12-29T02:17:08;100257.81;;;7.85;81.53
3122;BME280;1571;52.524;14.104;2023-12-29T02:19:40;100261.13;;;7.88;81.57
3122;BME280;1571;52.524;14.104;2023-12-29T02:22:11;100260.47;;;7.85;81.64
3122;BME280;1571;52.524;14.104;2023-12-29T02:24:47;100253.69;;;7.95;81.75
3122;BME280;1571;52.524;14.104;2023-12-29T02:27:25;100241.97;;;7.99;81.49
3122;BME280;1571;52.524;14.104;2023-12-29T02:30:04;100238.69;;;7.96;81.25
3122;BME280;1571;52.524;14.104;2023-12-29T02:32:36;100247.38;;;7.98;81.36
3122;BME280;1571;52.524;14.104;2023-12-29T02:35:09;100239.81;;;7.91;81.43
3122;BME280;1571;52.524;14.104;2023-12-29T02:37:39;100238.41;;;8.00;81.30
3122;BME280;1571;52.524;14.104;2023-12-29T02:40:11;100253.88;;;7.92;81.29
3122;BME280;1571;52.524;14.104;2023-12-29T02:42:44;100253.44;;;8.00;81.28
3122;BME280;1571;52.524;14.104;2023-12-29T02:45:13;100237.16;;;7.91;81.30
3122;BME280;1571;52.524;14.104;2023-12-29T02:47:42;100251.72;;;7.99;80.93
3122;BME280;1571;52.524;14.104;2023-12-29T02:50:11;100242.91;;;7.84;81.48
3122;BME280;1571;52.524;14.104;2023-12-29T02:52:40;100227.63;;;7.89;81.41
3122;BME280;1571;52.524;14.104;2023-12-29T02:55:10;100233.00;;;7.87;81.49
3122;BME280;1571;52.524;14.104;2023-12-29T02:57:39;100228.06;;;7.81;81.54
3122;BME280;1571;52.524;14.104;2023-12-29T03:00:07;100226.66;;;7.76;81.97
3122;BME280;1571;52.524;14.104;2023-12-29T03:02:36;100223.06;;;7.77;81.84
3122;BME280;1571;52.524;14.104;2023-12-29T03:05:05;100229.16;;;7.63;82.17
3122;BME280;1571;52.524;14.104;2023-12-29T03:07:34;100227.94;;;7.68;82.27
3122;BME280;1571;52.524;14.104;2023-12-29T03:10:03;100216.81;;;7.63;82.44
3122;BME280;1571;52.524;14.104;2023-12-29T03:12:34;100213.28;;;7.63;82.45
3122;BME280;1571;52.524;14.104;2023-12-29T03:15:03;100216.53;;;7.68;82.42
3122;BME280;1571;52.524;14.104;2023-12-29T03:17:31;100213.28;;;7.63;82.37
3122;BME280;1571;52.524;14.104;2023-12-29T03:20:01;100218.97;;;7.57;82.53
3122;BME280;1571;52.524;14.104;2023-12-29T03:22:29;100213.19;;;7.50;82.77
3122;BME280;1571;52.524;14.104;2023-12-29T03:24:58;100195.06;;;7.58;82.75
3122;BME280;1571;52.524;14.104;2023-12-29T03:27:26;100193.19;;;7.60;82.74
3122;BME280;1571;52.524;14.104;2023-12-29T03:29:56;100203.31;;;7.38;83.17
3122;BME280;1571;52.524;14.104;2023-12-29T03:32:25;100196.59;;;7.32;83.69
3122;BME280;1571;52.524;14.104;2023-12-29T03:34:53;100203.84;;;7.28;83.84
3122;BME280;1571;52.524;14.104;2023-12-29T03:37:22;100202.50;;;7.21;84.18
3122;BME280;1571;52.524;14.104;2023-12-29T03:39:50;100197.63;;;7.29;84.24
3122;BME280;1571;52.524;14.104;2023-12-29T03:42:18;100196.78;;;7.59;83.52
3122;BME280;1571;52.524;14.104;2023-12-29T03:44:47;100195.34;;;7.54;83.43
3122;BME280;1571;52.524;14.104;2023-12-29T03:47:16;100192.69;;;7.54;83.28
3122;BME280;1571;52.524;14.104;2023-12-29T03:49:44;100192.63;;;7.55;83.41
3122;BME280;1571;52.524;14.104;2023-12-29T03:52:13;100175.16;;;7.53;83.52
3122;BME280;1571;52.524;14.104;2023-12-29T03:54:42;100180.88;;;7.45;83.79
3122;BME280;1571;52.524;14.104;2023-12-29T03:57:10;100167.03;;;7.41;83.83
3122;BME280;1571;52.524;14.104;2023-12-29T03:59:40;100160.91;;;7.41;84.02
3122;BME280;1571;52.524;14.104;2023-12-29T04:02:08;100167.81;;;7.27;84.37
3122;BME280;1571;52.524;14.104;2023-12-29T04:04:39;100169.75;;;7.40;84.25
3122;BME280;1571;52.524;14.104;2023-12-29T04:07:07;100160.00;;;7.26;84.19
3122;BME280;1571;52.524;14.104;2023-12-29T04:09:36;100166.34;;;7.38;84.17
3122;BME280;1571;52.524;14.104;2023-12-29T04:12:04;100161.06;;;7.38;84.10
3122;BME280;1571;52.524;14.104;2023-12-29T04:14:33;100162.03;;;7.51;83.96
3122;BME280;1571;52.524;14.104;2023-12-29T04:17:01;100165.19;;;7.27;84.12
3122;BME280;1571;52.524;14.104;2023-12-29T04:19:31;100161.38;;;7.17;84.40
3122;BME280;1571;52.524;14.104;2023-12-29T04:22:01;100150.13;;;7.29;84.39
3122;BME280;1571;52.524;14.104;2023-12-29T04:24:30;100153.97;;;7.38;84.23
3122;BME280;1571;52.524;14.104;2023-12-29T04:27:02;100143.53;;;7.37;83.88
3122;BME280;1571;52.524;14.104;2023-12-29T04:29:31;100141.25;;;7.45;84.09
3122;BME280;1571;52.524;14.104;2023-12-29T04:31:59;100125.81;;;7.39;84.07
3122;BME280;1571;52.524;14.104;2023-12-29T04:34:28;100122.00;;;7.43;84.23
3122;BME280;1571;52.524;14.104;2023-12-29T04:36:56;100122.56;;;7.34;84.23
3122;BME280;1571;52.524;14.104;2023-12-29T04:39:27;100119.50;;;7.41;83.99
3122;BME280;1571;52.524;14.104;2023-12-29T04:41:55;100116.56;;;7.46;83.74
3122;BME280;1571;52.524;14.104;2023-12-29T04:44:24;100116.72;;;7.28;84.23
3122;BME280;1571;52.524;14.104;2023-12-29T04:46:52;100112.31;;;7.43;84.12
3122;BME280;1571;52.524;14.104;2023-12-29T04:49:20;100119.38;;;7.43;83.90
3122;BME280;1571;52.524;14.104;2023-12-29T04:51:49;100122.56;;;7.34;84.05
3122;BME280;1571;52.524;14.104;2023-12-29T04:54:17;100117.19;;;7.35;84.40
3122;BME280;1571;52.524;14.104;2023-12-29T04:56:47;100113.53;;;7.38;84.19
3122;BME280;1571;52.524;14.104;2023-12-29T04:59:15;100115.25;;;7.39;84.19
3122;BME280;1571;52.524;14.104;2023-12-29T05:01:43;100111.78;;;7.53;84.02
3122;BME280;1571;52.524;14.104;2023-12-29T05:04:12;100112.41;;;7.56;83.72
3122;BME280;1571;52.524;14.104;2023-12-29T05:06:42;100111.19;;;7.47;84.13
3122;BME280;1571;52.524;14.104;2023-12-29T05:09:10;100103.00;;;7.52;84.01
3122;BME280;1571;52.524;14.104;2023-12-29T05:11:39;100097.94;;;7.63;83.91
3122;BME280;1571;52.524;14.104;2023-12-29T05:14:08;100087.38;;;7.63;83.74
3122;BME280;1571;52.524;14.104;2023-12-29T05:16:37;100092.81;;;7.60;83.84
3122;BME280;1571;52.524;14.104;2023-12-29T05:19:05;100084.69;;;7.49;84.01
3122;BME280;1571;52.524;14.104;2023-12-29T05:21:34;100083.00;;;7.62;83.80
3122;BME280;1571;52.524;14.104;2023-12-29T05:24:02;100081.81;;;7.68;83.63
3122;BME280;1571;52.524;14.104;2023-12-29T05:26:31;100084.59;;;7.65;83.66
3122;BME280;1571;52.524;14.104;2023-12-29T05:29:00;100081.31;;;7.76;83.57
3122;BME280;1571;52.524;14.104;2023-12-29T05:31:29;100083.56;;;7.67;83.61
3122;BME280;1571;52.524;14.104;2023-12-29T05:33:57;100083.19;;;7.74;83.43
3122;BME280;1571;52.524;14.104;2023-12-29T05:36:26;100088.84;;;7.67;83.80
3122;BME280;1571;52.524;14.104;2023-12-29T05:38:55;100093.00;;;7.71;83.60
3122;BME280;1571;52.524;14.104;2023-12-29T05:41:24;100089.81;;;7.81;83.40
3122;BME280;1571;52.524;14.104;2023-12-29T05:43:52;100093.19;;;7.83;83.25
3122;BME280;1571;52.524;14.104;2023-12-29T05:46:19;100085.47;;;7.94;83.05
3122;BME280;1571;52.524;14.104;2023-12-29T05:48:49;100090.75;;;7.94;82.94
3122;BME280;1571;52.524;14.104;2023-12-29T05:51:19;100068.28;;;8.16;82.63
3122;BME280;1571;52.524;14.104;2023-12-29T05:53:48;100066.38;;;8.18;82.26
3122;BME280;1571;52.524;14.104;2023-12-29T05:56:16;100071.22;;;8.11;81.75
3122;BME280;1571;52.524;14.104;2023-12-29T05:58:44;100068.47;;;7.98;82.05
3122;BME280;1571;52.524;14.104;2023-12-29T06:01:12;100069.97;;;8.17;82.12
3122;BME280;1571;52.524;14.104;2023-12-29T06:03:41;100078.66;;;8.19;81.97
3122;BME280;1571;52.524;14.104;2023-12-29T06:06:11;100066.66;;;8.27;81.57
3122;BME280;1571;52.524;14.104;2023-12-29T06:08:39;100067.22;;;8.18;81.49
3122;BME280;1571;52.524;14.104;2023-12-29T06:11:07;100075.81;;;8.22;81.19
3122;BME280;1571;52.524;14.104;2023-12-29T06:13:35;100083.56;;;8.25;81.37
3122;BME280;1571;52.524;14.104;2023-12-29T06:16:05;100089.22;;;8.19;81.48
3122;BME280;1571;52.524;14.104;2023-12-29T06:18:33;100087.72;;;8.43;81.22
3122;BME280;1571;52.524;14.104;2023-12-29T06:21:02;100083.09;;;8.47;80.64
3122;BME280;1571;52.524;14.104;2023-12-29T06:23:32;100083.31;;;8.57;80.28
3122;BME280;1571;52.524;14.104;2023-12-29T06:26:00;100064.06;;;8.54;79.97
3122;BME280;1571;52.524;14.104;2023-12-29T06:28:29;100068.97;;;8.46;79.98
3122;BME280;1571;52.524;14.104;2023-12-29T06:30:57;100074.28;;;8.32;80.62
3122;BME280;1571;52.524;14.104;2023-12-29T06:33:25;100077.88;;;8.31;80.47
3122;BME280;1571;52.524;14.104;2023-12-29T06:35:54;100077.69;;;8.34;80.47
3122;BME280;1571;52.524;14.104;2023-12-29T06:38:22;100079.38;;;8.35;80.45
3122;BME280;1571;52.524;14.104;2023-12-29T06:40:52;100077.88;;;8.31;80.46
3122;BME280;1571;52.524;14.104;2023-12-29T06:43:20;100082.69;;;8.39;80.24
3122;BME280;1571;52.524;14.104;2023-12-29T06:45:48;100062.75;;;8.47;79.85
3122;BME280;1571;52.524;14.104;2023-12-29T06:48:16;100065.72;;;8.43;79.89
3122;BME280;1571;52.524;14.104;2023-12-29T06:50:47;100058.97;;;8.51;79.68
3122;BME280;1571;52.524;14.104;2023-12-29T06:53:15;100065.88;;;8.54;79.54
3122;BME280;1571;52.524;14.104;2023-12-29T06:55:44;100070.59;;;8.49;79.53
3122;BME280;1571;52.524;14.104;2023-12-29T06:58:13;100079.53;;;8.61;79.37
3122;BME280;1571;52.524;14.104;2023-12-29T07:00:42;100084.47;;;8.52;79.59
3122;BME280;1571;52.524;14.104;2023-12-29T07:03:12;100082.38;;;8.85;79.18
3122;BME280;1571;52.524;14.104;2023-12-29T07:05:41;100088.97;;;8.92;78.36
3122;BME280;1571;52.524;14.104;2023-12-29T07:08:12;100079.72;;;8.85;78.53
3122;BME280;1571;52.524;14.104;2023-12-29T07:10:41;100087.78;;;8.83;78.42
3122;BME280;1571;52.524;14.104;2023-12-29T07:13:10;100073.78;;;8.81;78.47
3122;BME280;1571;52.524;14.104;2023-12-29T07:15:39;100077.72;;;8.88;78.34
3122;BME280;1571;52.524;14.104;2023-12-29T07:18:08;100075.19;;;8.87;78.30
3122;BME280;1571;52.524;14.104;2023-12-29T07:20:36;100079.53;;;8.61;78.65
3122;BME280;1571;52.524;14.104;2023-12-29T07:23:05;100076.28;;;8.70;78.74
3122;BME280;1571;52.524;14.104;2023-12-29T07:25:33;100081.34;;;8.87;78.50
3122;BME280;1571;52.524;14.104;2023-12-29T07:28:01;100084.53;;;8.92;78.60
3122;BME280;1571;52.524;14.104;2023-12-29T07:30:30;100081.81;;;9.07;78.16
3122;BME280;1571;52.524;14.104;2023-12-29T07:33:02;100077.13;;;8.98;77.87
3122;BME280;1571;52.524;14.104;2023-12-29T07:35:31;100079.72;;;9.12;77.46
3122;BME280;1571;52.524;14.104;2023-12-29T07:37:59;100080.44;;;9.14;77.58
3122;BME280;1571;52.524;14.104;2023-12-29T07:40:28;100077.78;;;9.14;77.42
3122;BME280;1571;52.524;14.104;2023-12-29T07:42:56;100105.97;;;9.15;77.27
3122;BME280;1571;52.524;14.104;2023-12-29T07:45:24;100088.38;;;9.14;77.15
3122;BME280;1571;52.524;14.104;2023-12-29T07:47:53;100096.28;;;9.28;77.22
3122;BME280;1571;52.524;14.104;2023-12-29T07:50:22;100081.44;;;9.38;76.55
3122;BME280;1571;52.524;14.104;2023-12-29T07:52:51;100093.13;;;9.49;76.34
3122;BME280;1571;52.524;14.104;2023-12-29T07:55:19;100091.00;;;9.54;75.96
3122;BME280;1571;52.524;14.104;2023-12-29T07:57:47;100088.34;;;9.54;75.70
3122;BME280;1571;52.524;14.104;2023-12-29T08:00:16;100085.06;;;9.63;75.70
3122;BME280;1571;52.524;14.104;2023-12-29T08:02:44;100096.09;;;9.70;75.58
3122;BME280;1571;52.524;14.104;2023-12-29T08:05:13;100088.25;;;9.68;75.50
3122;BME280;1571;52.524;14.104;2023-12-29T08:07:43;100103.53;;;9.77;75.15
3122;BME280;1571;52.524;14.104;2023-12-29T08:10:12;100103.59;;;9.63;75.44
3122;BME280;1571;52.524;14.104;2023-12-29T08:12:40;100108.69;;;9.53;76.38
3122;BME280;1571;52.524;14.104;2023-12-29T08:15:09;100096.81;;;9.59;76.24
3122;BME280;1571;52.524;14.104;2023-12-29T08:17:38;100100.53;;;9.69;75.70
3122;BME280;1571;52.524;14.104;2023-12-29T08:20:07;100115.59;;;9.56;76.03
3122;BME280;1571;52.524;14.104;2023-12-29T08:22:36;100100.84;;;9.65;75.99
3122;BME280;1571;52.524;14.104;2023-12-29T08:25:07;100108.16;;;9.61;75.78
3122;BME280;1571;52.524;14.104;2023-12-29T08:27:36;100118.34;;;9.67;75.38
3122;BME280;1571;52.524;14.104;2023-12-29T08:30:06;100101.50;;;9.68;75.36
3122;BME280;1571;52.524;14.104;2023-12-29T08:32:35;100118.69;;;9.75;75.17
3122;BME280;1571;52.524;14.104;2023-12-29T08:35:04;100112.63;;;9.73;75.34
3122;BME280;1571;52.524;14.104;2023-12-29T08:37:33;100114.75;;;9.94;74.85
3122;BME280;1571;52.524;14.104;2023-12-29T08:40:02;100120.47;;;9.88;74.64
3122;BME280;1571;52.524;14.104;2023-12-29T08:42:32;100109.03;;;10.00;74.30
3122;BME280;1571;52.524;14.104;2023-12-29T08:45:01;100115.06;;;10.02;74.27
3122;BME280;1571;52.524;14.104;2023-12-29T08:47:32;100103.81;;;9.98;74.12
3122;BME280;1571;52.524;14.104;2023-12-29T08:50:00;100103.28;;;10.06;74.12
3122;BME280;1571;52.524;14.104;2023-12-29T08:52:29;100100.09;;;10.01;74.35
3122;BME280;1571;52.524;14.104;2023-12-29T08:54:57;100103.03;;;10.22;73.78
3122;BME280;1571;52.524;14.104;2023-12-29T08:57:25;100099.03;;;10.29;73.49
3122;BME280;1571;52.524;14.104;2023-12-29T08:59:55;100100.63;;;10.32;73.16
3122;BME280;1571;52.524;14.104;2023-12-29T09:02:23;100106.50;;;10.48;73.18
3122;BME280;1571;52.524;14.104;2023-12-29T09:04:51;100104.03;;;10.34;73.36
3122;BME280;1571;52.524;14.104;2023-12-29T09:07:20;100125.56;;;10.29;73.03
3122;BME280;1571;52.524;14.104;2023-12-29T09:09:48;100125.31;;;10.19;73.42
3122;BME280;1571;52.524;14.104;2023-12-29T09:12:16;100130.84;;;10.04;73.84
3122;BME280;1571;52.524;14.104;2023-12-29T09:14:45;100118.16;;;9.96;73.98
3122;BME280;1571;52.524;14.104;2023-12-29T09:17:14;100112.59;;;10.25;73.56
3122;BME280;1571;52.524;14.104;2023-12-29T09:19:42;100097.38;;;10.52;73.16
3122;BME280;1571;52.524;14.104;2023-12-29T09:22:17;100097.50;;;10.75;72.36
3122;BME280;1571;52.524;14.104;2023-12-29T09:24:45;100107.22;;;10.63;72.50
3122;BME280;1571;52.524;14.104;2023-12-29T09:27:14;100120.59;;;10.61;72.20
3122;BME280;1571;52.524;14.104;2023-12-29T09:29:42;100120.75;;;10.47;72.40
3122;BME280;1571;52.524;14.104;2023-12-29T09:32:10;100135.31;;;10.29;73.01
3122;BME280;1571;52.524;14.104;2023-12-29T09:34:40;100131.28;;;10.10;73.52
3122;BME280;1571;52.524;14.104;2023-12-29T09:37:09;100117.50;;;10.18;73.49
3122;BME280;1571;52.524;14.104;2023-12-29T09:39:37;100127.88;;;10.08;73.84
3122;BME280;1571;52.524;14.104;2023-12-29T09:42:07;100124.06;;;9.99;73.70
3122;BME280;1571;52.524;14.104;2023-12-29T09:44:40;100118.94;;;10.22;73.97
3122;BME280;1571;52.524;14.104;2023-12-29T09:47:10;100133.19;;;10.08;73.82
3122;BME280;1571;52.524;14.104;2023-12-29T09:49:41;100126.63;;;10.01;74.42
3122;BME280;1571;52.524;14.104;2023-12-29T09:52:11;100119.41;;;10.29;73.86
3122;BME280;1571;52.524;14.104;2023-12-29T09:54:41;100121.50;;;10.11;73.91
3122;BME280;1571;52.524;14.104;2023-12-29T09:57:10;100111.00;;;10.22;74.15
3122;BME280;1571;52.524;14.104;2023-12-29T09:59:40;100113.44;;;10.25;73.80
3122;BME280;1571;52.524;14.104;2023-12-29T10:02:12;100121.28;;;10.27;73.72
3122;BME280;1571;52.524;14.104;2023-12-29T10:04:43;100106.88;;;10.05;74.02
3122;BME280;1571;52.524;14.104;2023-12-29T10:07:15;100122.91;;;10.16;74.47
3122;BME280;1571;52.524;14.104;2023-12-29T10:09:50;100112.38;;;10.28;74.17
3122;BME280;1571;52.524;14.104;2023-12-29T10:12:21;100110.25;;;10.33;73.51
3122;BME280;1571;52.524;14.104;2023-12-29T10:14:55;100120.88;;;10.33;73.55
3122;BME280;1571;52.524;14.104;2023-12-29T10:17:32;100116.84;;;10.27;73.77
3122;BME280;1571;52.524;14.104;2023-12-29T10:20:15;100113.63;;;10.48;73.50
3122;BME280;1571;52.524;14.104;2023-12-29T10:22:48;100103.47;;;10.29;73.81
3122;BME280;1571;52.524;14.104;2023-12-29T10:25:20;100113.13;;;10.43;73.49
3122;BME280;1571;52.524;14.104;2023-12-29T10:27:51;100113.22;;;10.41;73.53
3122;BME280;1571;52.524;14.104;2023-12-29T10:30:20;100114.72;;;10.45;73.85
3122;BME280;1571;52.524;14.104;2023-12-29T10:33:00;100110.38;;;10.18;73.93
3122;BME280;1571;52.524;14.104;2023-12-29T10:35:34;100112.91;;;10.33;73.96
3122;BME280;1571;52.524;14.104;2023-12-29T10:38:11;100108.59;;;10.32;74.02
3122;BME280;1571;52.524;14.104;2023-12-29T10:40:40;100104.69;;;10.49;73.69
3122;BME280;1571;52.524;14.104;2023-12-29T10:43:10;100095.59;;;10.40;73.66
3122;BME280;1571;52.524;14.104;2023-12-29T10:45:38;100090.09;;;10.43;73.60
3122;BME280;1571;52.524;14.104;2023-12-29T10:48:07;100069.44;;;10.59;73.43
3122;BME280;1571;52.524;14.104;2023-12-29T10:50:44;100069.66;;;10.56;73.53
3122;BME280;1571;52.524;14.104;2023-12-29T10:53:13;100076.44;;;10.60;73.35
3122;BME280;1571;52.524;14.104;2023-12-29T10:55:44;100090.66;;;10.59;73.25
3122;BME280;1571;52.524;14.104;2023-12-29T10:58:15;100084.84;;;10.78;73.30
3122;BME280;1571;52.524;14.104;2023-12-29T11:00:44;100088.84;;;10.60;73.21
3122;BME280;1571;52.524;14.104;2023-12-29T11:03:14;100092.03;;;10.65;73.21
3122;BME280;1571;52.524;14.104;2023-12-29T11:05:44;100092.66;;;10.69;73.37
3122;BME280;1571;52.524;14.104;2023-12-29T11:08:16;100086.09;;;10.86;72.95
3122;BME280;1571;52.524;14.104;2023-12-29T11:10:46;100078.00;;;10.87;72.83
3122;BME280;1571;52.524;14.104;2023-12-29T11:13:15;100093.78;;;10.77;72.58
3122;BME280;1571;52.524;14.104;2023-12-29T11:15:47;100076.03;;;10.78;72.17
3122;BME280;1571;52.524;14.104;2023-12-29T11:18:17;100090.28;;;10.77;72.74
3122;BME280;1571;52.524;14.104;2023-12-29T11:20:47;100093.03;;;10.99;72.30
3122;BME280;1571;52.524;14.104;2023-12-29T11:23:16;100087.09;;;10.96;72.10
3122;BME280;1571;52.524;14.104;2023-12-29T11:25:44;100087.72;;;10.99;71.58
3122;BME280;1571;52.524;14.104;2023-12-29T11:28:13;100081.72;;;11.09;71.70
3122;BME280;1571;52.524;14.104;2023-12-29T11:30:42;100094.00;;;10.98;71.93
3122;BME280;1571;52.524;14.104;2023-12-29T11:33:14;100086.81;;;11.12;71.34
3122;BME280;1571;52.524;14.104;2023-12-29T11:35:51;100096.19;;;11.04;71.74
3122;BME280;1571;52.524;14.104;2023-12-29T11:38:29;100090.81;;;11.17;71.41
3122;BME280;1571;52.524;14.104;2023-12-29T11:41:08;100091.50;;;11.08;71.34
3122;BME280;1571;52.524;14.104;2023-12-29T11:43:38;100077.88;;;11.13;71.47
3122;BME280;1571;52.524;14.104;2023-12-29T11:46:06;100081.03;;;11.18;71.13
3122;BME280;1571;52.524;14.104;2023-12-29T11:48:54;100073.81;;;11.20;71.30
3122;BME280;1571;52.524;14.104;2023-12-29T11:51:30;100079.81;;;11.11;71.89
3122;BME280;1571;52.524;14.104;2023-12-29T11:53:59;100072.69;;;11.11;71.37
3122;BME280;1571;52.524;14.104;2023-12-29T11:56:34;100056.50;;;11.14;71.21
3122;BME280;1571;52.524;14.104;2023-12-29T11:59:12;100061.72;;;11.16;71.07
3122;BME280;1571;52.524;14.104;2023-12-29T12:01:41;100059.25;;;11.01;71.55
3122;BME280;1571;52.524;14.104;2023-12-29T12:04:38;100072.78;;;11.10;71.63
3122;BME280;1571;52.524;14.104;2023-12-29T12:07:15;100051.63;;;10.97;71.96
3122;BME280;1571;52.524;14.104;2023-12-29T12:09:44;100040.81;;;11.11;71.62
3122;BME280;1571;52.524;14.104;2023-12-29T12:12:40;100041.75;;;10.99;71.73
3122;BME280;1571;52.524;14.104;2023-12-29T12:15:32;100036.31;;;11.12;71.50
3122;BME280;1571;52.524;14.104;2023-12-29T12:18:03;100036.50;;;10.86;72.15
3122;BME280;1571;52.524;14.104;2023-12-29T12:20:35;100039.31;;;10.96;71.95
3122;BME280;1571;52.524;14.104;2023-12-29T12:23:11;100045.41;;;10.85;72.62
3122;BME280;1571;52.524;14.104;2023-12-29T12:25:41;100043.53;;;10.98;72.18
3122;BME280;1571;52.524;14.104;2023-12-29T12:28:10;100057.75;;;10.86;72.57
3122;BME280;1571;52.524;14.104;2023-12-29T12:30:39;100063.63;;;11.14;72.43
3122;BME280;1571;52.524;14.104;2023-12-29T12:33:07;100053.25;;;11.11;72.25
3122;BME280;1571;52.524;14.104;2023-12-29T12:35:39;100051.38;;;11.00;72.14
3122;BME280;1571;52.524;14.104;2023-12-29T12:38:10;100055.56;;;10.91;72.70
3122;BME280;1571;52.524;14.104;2023-12-29T12:40:39;100055.31;;;10.83;72.71
3122;BME280;1571;52.524;14.104;2023-12-29T12:43:08;100055.56;;;10.91;72.78
3122;BME280;1571;52.524;14.104;2023-12-29T12:45:43;100056.03;;;10.85;72.68
3122;BME280;1571;52.524;14.104;2023-12-29T12:48:22;100057.06;;;10.95;73.08
3122;BME280;1571;52.524;14.104;2023-12-29T12:50:51;100057.50;;;10.89;73.13
3122;BME280;1571;52.524;14.104;2023-12-29T12:53:23;100057.75;;;10.86;73.62
3122;BME280;1571;52.524;14.104;2023-12-29T12:55:52;100056.31;;;10.93;73.64
3122;BME280;1571;52.524;14.104;2023-12-29T12:58:21;100048.34;;;10.93;73.74
3122;BME280;1571;52.524;14.104;2023-12-29T13:00:50;100042.16;;;10.57;75.65
3122;BME280;1571;52.524;14.104;2023-12-29T13:03:22;100056.66;;;10.65;76.67
3122;BME280;1571;52.524;14.104;2023-12-29T13:05:51;100049.03;;;10.60;76.02
3122;BME280;1571;52.524;14.104;2023-12-29T13:08:22;100055.84;;;10.51;76.22
3122;BME280;1571;52.524;14.104;2023-12-29T13:11:01;100063.25;;;10.35;77.00
3122;BME280;1571;52.524;14.104;2023-12-29T13:13:37;100059.59;;;10.49;77.01
3122;BME280;1571;52.524;14.104;2023-12-29T13:16:06;100043.94;;;10.33;77.07
3122;BME280;1571;52.524;14.104;2023-12-29T13:18:35;100041.09;;;10.36;77.84
3122;BME280;1571;52.524;14.104;2023-12-29T13:21:04;100049.75;;;10.38;78.35